Time;durP1;ratioP1;P1;durP2;ratioP2;P2;SDS_P1;SDS_P2;PMS_P1;PMS_P2;Temp;Humidity;BMP_temperature;BMP_pressure;BME280_temperature;BME280_humidity;BME280_pressure;Samples;Min_cycle;Max_cycle;Signal;HPM_P1;HPM_P2
2022/01/29 00:01:37;;;;;;;36.45;16.67;;;6.80;99.90;;;;;;5068775;28;20033;-78
2022/01/29 00:04:03;;;;;;;34.72;15.93;;;6.80;99.90;;;;;;5068459;28;20093;-78
2022/01/29 00:06:29;;;;;;;40.15;18.60;;;6.80;99.90;;;;;;5068832;28;20469;-78
2022/01/29 00:08:56;;;;;;;34.03;18.05;;;6.80;99.90;;;;;;5067969;28;20044;-78
2022/01/29 00:11:27;;;;;;;40.72;18.50;;;6.80;99.90;;;;;;5068596;28;20052;-78
2022/01/29 00:13:53;;;;;;;39.28;17.05;;;6.80;99.90;;;;;;5068174;28;20051;-78
2022/01/29 00:16:19;;;;;;;37.40;17.95;;;6.80;99.90;;;;;;5068103;28;20044;-78
2022/01/29 00:18:45;;;;;;;33.33;17.25;;;6.80;99.90;;;;;;5069876;28;20819;-78
2022/01/29 00:21:10;;;;;;;33.47;16.55;;;6.80;99.90;;;;;;5069527;28;20114;-78
2022/01/29 00:23:36;;;;;;;37.53;15.38;;;6.90;99.90;;;;;;5085041;28;20050;-78
2022/01/29 00:26:02;;;;;;;31.00;17.10;;;6.90;99.90;;;;;;5088515;28;20747;-78
2022/01/29 00:28:28;;;;;;;30.70;17.08;;;6.90;99.90;;;;;;5088432;28;20060;-78
2022/01/29 00:30:53;;;;;;;35.47;18.00;;;6.90;99.90;;;;;;5071807;28;20414;-78
2022/01/29 00:33:19;;;;;;;32.78;18.00;;;6.90;99.90;;;;;;5087946;28;20036;-78
2022/01/29 00:35:45;;;;;;;34.28;16.70;;;6.90;99.90;;;;;;5088363;28;20055;-78
2022/01/29 00:38:10;;;;;;;31.75;16.25;;;6.90;99.90;;;;;;5071339;28;20052;-78
2022/01/29 00:40:37;;;;;;;36.38;18.70;;;6.90;99.90;;;;;;5088170;28;20040;-78
2022/01/29 00:43:05;;;;;;;35.03;17.33;;;6.90;99.90;;;;;;5071385;28;20055;-78
2022/01/29 00:45:32;;;;;;;29.00;16.77;;;7.00;99.90;;;;;;5071442;28;20059;-78
2022/01/29 00:47:57;;;;;;;40.63;17.45;;;6.90;99.90;;;;;;5071314;28;20649;-78
2022/01/29 00:50:23;;;;;;;43.40;19.65;;;6.90;99.90;;;;;;5089537;28;20047;-78
2022/01/29 00:52:49;;;;;;;37.90;18.20;;;6.90;99.90;;;;;;5088356;28;20185;-78
2022/01/29 00:55:15;;;;;;;35.03;17.58;;;6.90;99.90;;;;;;5070567;28;20494;-78
2022/01/29 00:57:40;;;;;;;38.08;18.30;;;6.90;99.90;;;;;;5071320;28;20447;-78
2022/01/29 01:00:09;;;;;;;42.78;20.13;;;6.90;99.90;;;;;;5071427;28;20067;-78
2022/01/29 01:02:36;;;;;;;41.88;20.70;;;6.90;99.90;;;;;;5088791;28;20411;-78
2022/01/29 01:05:02;;;;;;;42.35;19.75;;;6.90;99.90;;;;;;5070846;28;20047;-78
2022/01/29 01:07:28;;;;;;;36.55;19.83;;;6.90;99.90;;;;;;5089251;28;20075;-78
2022/01/29 01:09:53;;;;;;;31.30;17.17;;;6.90;99.90;;;;;;5071296;28;20090;-78
2022/01/29 01:12:19;;;;;;;41.15;20.60;;;6.90;99.90;;;;;;5071029;28;21028;-78
2022/01/29 01:14:45;;;;;;;37.00;21.30;;;6.90;99.90;;;;;;5071248;28;20040;-78
2022/01/29 01:17:11;;;;;;;36.95;20.70;;;7.00;99.90;;;;;;5088725;28;20336;-77
2022/01/29 01:19:36;;;;;;;36.08;20.15;;;7.00;99.90;;;;;;5071363;28;20075;-78
2022/01/29 01:22:02;;;;;;;;;;;7.00;99.90;;;;;;5086059;28;20051;-78
2022/01/29 01:24:28;;;;;;;;;;;7.00;99.90;;;;;;5068106;28;19932;-78
2022/01/29 01:26:53;;;;;;;38.28;19.55;;;7.00;99.90;;;;;;5066804;28;19970;-78
2022/01/29 01:29:19;;;;;;;38.33;19.58;;;7.00;99.90;;;;;;5067728;28;20048;-78
2022/01/29 01:31:45;;;;;;;37.45;21.08;;;7.10;99.90;;;;;;5068486;28;20564;-78
2022/01/29 01:34:16;;;;;;;;;;;7.10;99.90;;;;;;5051432;28;20055;-78
2022/01/29 01:37:06;;;;;;;;;;;7.10;99.90;;;;;;5068259;28;20003;-78
2022/01/29 01:39:34;;;;;;;;;;;7.20;99.90;;;;;;5067938;28;19921;-78
2022/01/29 01:42:04;;;;;;;;;;;7.20;99.90;;;;;;5049874;28;19925;-78
2022/01/29 01:44:43;;;;;;;;;;;7.30;99.90;;;;;;5070912;28;19921;-78
2022/01/29 01:47:09;;;;;;;;;;;7.30;99.90;;;;;;5055253;28;20369;-78
2022/01/29 01:49:34;;;;;;;;;;;7.40;99.90;;;;;;5071715;28;19967;-78
2022/01/29 01:52:00;;;;;;;;;;;7.40;99.90;;;;;;5091421;28;20370;-78
2022/01/29 01:54:25;;;;;;;;;;;7.40;99.90;;;;;;5092184;28;19920;-78
2022/01/29 01:56:51;;;;;;;;;;;7.50;99.90;;;;;;5092970;28;19931;-78
2022/01/29 01:59:16;;;;;;;;;;;7.50;99.90;;;;;;5064928;28;19951;-78
2022/01/29 02:01:42;;;;;;;;;;;7.50;99.90;;;;;;5071831;28;20298;-77
2022/01/29 02:04:07;;;;;;;;;;;7.50;99.90;;;;;;5072534;28;19920;-78
2022/01/29 02:06:33;;;;;;;;;;;7.60;99.90;;;;;;5071113;28;20043;-78
2022/01/29 02:09:00;;;;;;;;;;;7.60;99.90;;;;;;5054872;28;19967;-78
2022/01/29 02:11:26;;;;;;;;;;;7.60;99.90;;;;;;5071244;28;19966;-78
2022/01/29 02:13:53;;;;;;;;;;;7.60;99.90;;;;;;5072532;28;19942;-78
2022/01/29 02:16:19;;;;;;;;;;;7.70;99.90;;;;;;5080400;28;19920;-78
2022/01/29 02:18:45;;;;;;;;;;;7.70;99.90;;;;;;5091222;28;19920;-78
2022/01/29 02:21:11;;;;;;;30.93;16.70;;;7.70;99.90;;;;;;5091812;28;20413;-77
2022/01/29 02:23:37;;;;;;;39.65;22.90;;;7.70;99.90;;;;;;5072705;28;20409;-78
2022/01/29 02:26:02;;;;;;;39.43;22.77;;;7.70;99.90;;;;;;5072344;28;20398;-77
2022/01/29 02:28:28;;;;;;;37.63;17.95;;;7.70;99.90;;;;;;5091506;28;20504;-78
2022/01/29 02:31:03;;;;;;;43.15;19.25;;;7.70;99.90;;;;;;5074034;28;20051;-77
2022/01/29 02:33:32;;;;;;;42.03;19.42;;;7.70;99.90;;;;;;5092209;28;20040;-78
2022/01/29 02:35:58;;;;;;;34.97;17.75;;;7.70;99.90;;;;;;5091686;28;20375;-78
2022/01/29 02:38:25;;;;;;;37.80;17.17;;;7.70;99.90;;;;;;5090276;28;20421;-78
2022/01/29 02:40:56;;;;;;;41.35;18.52;;;7.70;99.90;;;;;;5090552;28;20089;-78
2022/01/29 02:43:24;;;;;;;30.38;15.60;;;7.70;99.90;;;;;;5090628;28;20083;-78
2022/01/29 02:45:52;;;;;;;45.47;16.60;;;7.80;99.90;;;;;;5089438;28;20533;-78
2022/01/29 02:48:20;;;;;;;30.70;15.65;;;7.80;99.90;;;;;;5072299;28;20055;-78
2022/01/29 02:50:46;;;;;;;35.55;15.82;;;7.80;99.90;;;;;;5077842;28;20036;-78
2022/01/29 02:53:12;;;;;;;32.85;15.82;;;7.80;99.90;;;;;;5071284;28;20040;-78
2022/01/29 02:55:38;;;;;;;29.25;15.80;;;7.80;99.90;;;;;;5052548;28;20861;-78
2022/01/29 02:58:03;;;;;;;28.90;15.60;;;7.80;99.90;;;;;;5053144;28;20044;-78
2022/01/29 03:00:29;;;;;;;33.72;14.40;;;7.90;99.90;;;;;;5069676;28;20601;-78
2022/01/29 03:02:55;;;;;;;30.67;16.20;;;7.90;99.90;;;;;;5070357;28;20556;-78
2022/01/29 03:05:20;;;;;;;34.72;16.13;;;7.90;99.90;;;;;;5069628;28;20123;-78
2022/01/29 03:07:46;;;;;;;26.88;14.68;;;7.90;99.90;;;;;;5069945;28;20053;-78
2022/01/29 03:10:12;;;;;;;38.63;14.68;;;7.90;99.90;;;;;;5070913;28;20036;-78
2022/01/29 03:12:40;;;;;;;26.52;14.57;;;8.00;99.90;;;;;;5069970;28;20398;-78
2022/01/29 03:15:09;;;;;;;31.48;15.27;;;8.00;99.90;;;;;;5069180;28;20044;-78
2022/01/29 03:17:35;;;;;;;32.88;15.30;;;8.00;99.90;;;;;;5069423;28;20056;-78
2022/01/29 03:20:01;;;;;;;27.27;14.70;;;8.00;99.90;;;;;;5053182;28;20395;-78
2022/01/29 03:22:27;;;;;;;40.47;15.75;;;8.00;99.90;;;;;;5052605;28;20040;-78
2022/01/29 03:24:52;;;;;;;27.67;13.40;;;8.00;99.90;;;;;;5052583;28;20036;-78
2022/01/29 03:27:18;;;;;;;31.02;14.55;;;8.00;99.90;;;;;;5068980;28;20044;-78
2022/01/29 03:29:44;;;;;;;30.10;14.30;;;8.00;99.90;;;;;;5052848;28;20075;-78
2022/01/29 03:32:10;;;;;;;29.42;15.32;;;8.00;99.90;;;;;;5052358;28;20079;-78
2022/01/29 03:34:35;;;;;;;33.60;14.00;;;8.00;99.90;;;;;;5069504;28;20469;-78
2022/01/29 03:37:02;;;;;;;30.48;15.73;;;8.00;99.90;;;;;;5069914;28;21126;-78
2022/01/29 03:39:29;;;;;;;33.03;15.23;;;8.00;99.90;;;;;;5069046;28;20080;-78
2022/01/29 03:42:01;;;;;;;28.02;14.70;;;8.10;99.90;;;;;;5068817;28;20048;-78
2022/01/29 03:44:26;;;;;;;29.33;15.02;;;8.10;99.90;;;;;;5068923;28;20049;-78
2022/01/29 03:46:52;;;;;;;29.40;14.50;;;8.10;99.90;;;;;;5069080;28;20082;-78
2022/01/29 03:49:18;;;;;;;33.90;16.00;;;8.10;99.90;;;;;;5069653;28;20090;-78
2022/01/29 03:51:43;;;;;;;29.98;15.75;;;8.10;99.90;;;;;;5090032;28;20464;-78
2022/01/29 03:54:09;;;;;;;32.78;15.35;;;8.10;99.90;;;;;;5090060;28;20092;-78
2022/01/29 03:56:34;;;;;;;35.33;15.48;;;8.10;99.90;;;;;;5088892;28;20070;-78
2022/01/29 03:59:00;;;;;;;30.45;15.43;;;8.20;99.90;;;;;;5088894;28;20071;-78
2022/01/29 04:01:26;;;;;;;26.75;15.57;;;8.20;99.90;;;;;;5089860;28;20101;-78
2022/01/29 04:03:51;;;;;;;34.35;16.08;;;8.20;99.90;;;;;;5090485;28;20391;-78
2022/01/29 04:06:17;;;;;;;27.42;13.70;;;8.20;99.90;;;;;;5088187;28;20052;-78
2022/01/29 04:08:43;;;;;;;26.42;14.50;;;8.20;99.90;;;;;;5089757;28;20032;-78
2022/01/29 04:11:14;;;;;;;22.70;13.57;;;8.20;99.90;;;;;;5088526;28;20048;-78
2022/01/29 04:13:43;;;;;;;30.48;13.77;;;8.30;99.90;;;;;;5088871;28;20055;-78
2022/01/29 04:16:08;;;;;;;31.42;14.05;;;8.30;99.90;;;;;;5089508;28;20047;-78
2022/01/29 04:18:34;;;;;;;31.25;15.10;;;8.30;99.90;;;;;;5088612;28;20044;-78
2022/01/29 04:21:01;;;;;;;28.85;15.38;;;8.30;99.90;;;;;;5090150;28;20100;-78
2022/01/29 04:23:27;;;;;;;30.50;16.23;;;8.30;99.90;;;;;;5071316;28;20075;-78
2022/01/29 04:25:53;;;;;;;28.50;16.30;;;8.30;99.90;;;;;;5088328;28;20437;-78
2022/01/29 04:28:26;;;;;;;31.08;16.38;;;8.30;99.90;;;;;;5089519;28;20055;-78
2022/01/29 04:30:57;;;;;;;31.20;15.23;;;8.30;99.90;;;;;;5088297;28;20048;-77
2022/01/29 04:35:49;;;;;;;32.97;15.15;;;8.30;99.90;;;;;;5089768;28;20075;-77
2022/01/29 04:38:15;;;;;;;31.60;15.70;;;8.40;99.90;;;;;;5087917;28;20048;-78
2022/01/29 04:40:41;;;;;;;;;;;8.30;99.90;;;;;;5089053;28;20047;-77
2022/01/29 04:43:07;;;;;;;;;;;8.40;99.90;;;;;;5072373;28;19920;-78
2022/01/29 04:45:32;;;;;;;;;;;8.30;99.90;;;;;;5088787;28;20228;-78
2022/01/29 04:47:58;;;;;;;;;;;8.30;99.90;;;;;;5088675;28;19955;-78
2022/01/29 04:50:24;;;;;;;;;;;8.40;99.90;;;;;;5080250;28;19920;-78
2022/01/29 04:52:49;;;;;;;;;;;8.40;99.90;;;;;;5068285;28;19927;-77
2022/01/29 04:55:15;;;;;;;;;;;8.30;99.90;;;;;;5069377;28;19921;-78
2022/01/29 04:57:41;;;;;;;;;;;8.40;99.90;;;;;;5067344;28;19931;-78
2022/01/29 05:00:08;;;;;;;;;;;8.40;99.90;;;;;;5067748;28;19947;-78
2022/01/29 05:02:35;;;;;;;;;;;8.40;99.90;;;;;;5067404;28;19930;-77
2022/01/29 05:05:00;;;;;;;;;;;8.40;99.90;;;;;;5067366;28;20371;-78
2022/01/29 05:07:26;;;;;;;;;;;8.40;99.90;;;;;;5067702;28;19970;-78
2022/01/29 05:09:51;;;;;;;;;;;8.40;99.90;;;;;;5067443;28;20424;-78
2022/01/29 05:12:23;;;;;;;;;;;8.40;99.90;;;;;;5067145;28;19920;-77
2022/01/29 05:15:08;;;;;;;;;;;8.40;99.90;;;;;;5051501;28;19921;-78
2022/01/29 05:28:30;;;;;;;;;;;8.50;99.90;;;;;;5071630;28;20427;-78
2022/01/29 05:30:56;;;;;;;;;;;8.50;99.90;;;;;;5071887;28;19966;-77
2022/01/29 05:33:21;;;;;;;;;;;8.50;99.90;;;;;;5072554;28;21036;-78
2022/01/29 05:35:47;;;;;;;;;;;8.50;99.90;;;;;;5071757;28;19964;-77
2022/01/29 05:38:12;;;;;;;;;;;8.50;99.90;;;;;;5071798;28;19924;-78
2022/01/29 05:40:38;;;;;;;;;;;8.50;99.90;;;;;;5071774;28;19921;-78
2022/01/29 05:43:03;;;;;;;;;;;8.60;99.90;;;;;;5071655;28;20046;-77
2022/01/29 05:45:29;;;;;;;;;;;8.60;99.90;;;;;;5072095;28;19921;-78
2022/01/29 05:47:55;;;;;;;;;;;8.60;99.90;;;;;;5055096;28;19920;-77
2022/01/29 05:50:20;;;;;;;;;;;8.60;99.90;;;;;;5072351;28;20317;-77
2022/01/29 05:52:46;;;;;;;;;;;8.60;99.90;;;;;;5054886;28;20379;-78
2022/01/29 05:55:11;;;;;;;;;;;8.60;99.90;;;;;;5071745;28;20290;-78
2022/01/29 05:57:37;;;;;;;;;;;8.60;99.90;;;;;;5054311;28;19952;-77
2022/01/29 06:00:04;;;;;;;;;;;8.60;99.90;;;;;;5071692;28;19920;-77
2022/01/29 06:02:29;;;;;;;;;;;8.60;99.90;;;;;;5054818;28;19924;-78
2022/01/29 06:04:55;;;;;;;;;;;8.60;99.90;;;;;;5071346;28;20334;-78
2022/01/29 06:07:20;;;;;;;;;;;8.60;99.90;;;;;;5071329;28;19921;-78
2022/01/29 06:09:47;;;;;;;;;;;8.50;99.90;;;;;;5070953;28;19920;-77
2022/01/29 06:12:13;;;;;;;;;;;8.50;99.90;;;;;;5071381;28;19989;-78
2022/01/29 06:14:39;;;;;;;;;;;8.50;99.90;;;;;;5071302;28;19967;-77
2022/01/29 06:17:04;;;;;;;;;;;8.50;99.90;;;;;;5071334;28;19924;-78
2022/01/29 06:19:30;;;;;;;;;;;8.50;99.90;;;;;;5071247;28;19920;-77
2022/01/29 06:21:55;;;;;;;;;;;8.50;99.90;;;;;;5070979;28;19921;-77
2022/01/29 06:24:22;;;;;;;;;;;8.50;99.90;;;;;;5070673;28;19928;-77
2022/01/29 06:26:47;;;;;;;;;;;8.60;99.90;;;;;;5071204;28;19924;-78
2022/01/29 06:29:13;;;;;;;;;;;8.60;99.90;;;;;;5070433;28;20379;-78
2022/01/29 06:31:39;;;;;;;;;;;8.60;99.90;;;;;;5070253;28;20027;-78
2022/01/29 06:34:05;;;;;;;;;;;8.60;99.90;;;;;;5070986;28;20019;-77
2022/01/29 06:36:30;;;;;;;;;;;8.60;99.90;;;;;;5054236;28;20261;-77
2022/01/29 06:38:56;;;;;;;;;;;8.60;99.90;;;;;;5070823;28;19928;-78
2022/01/29 06:41:21;;;;;;;;;;;8.60;99.90;;;;;;5053619;28;20612;-78
2022/01/29 06:43:47;;;;;;;;;;;8.60;99.90;;;;;;5054207;28;19921;-78
2022/01/29 06:46:12;;;;;;;34.70;17.58;;;8.60;99.90;;;;;;5071396;28;19924;-78
2022/01/29 06:48:38;;;;;;;29.40;20.17;;;8.60;99.90;;;;;;5052026;28;20777;-78
2022/01/29 06:51:03;;;;;;;30.38;20.27;;;8.70;99.90;;;;;;5068513;28;20461;-78
2022/01/29 06:53:29;;;;;;;31.33;20.53;;;8.60;99.90;;;;;;5069017;28;20770;-77
2022/01/29 06:55:55;;;;;;;30.90;19.85;;;8.70;99.90;;;;;;5069359;28;20923;-78
2022/01/29 06:58:20;;;;;;;28.25;18.08;;;8.60;99.90;;;;;;5068274;28;20430;-78
2022/01/29 07:00:46;;;;;;;27.47;18.63;;;8.70;99.90;;;;;;5068645;28;20774;-77
2022/01/29 07:03:11;;;;;;;25.98;17.95;;;8.70;99.90;;;;;;5068637;28;20407;-78
2022/01/29 07:05:37;;;;;;;26.20;18.03;;;8.70;99.90;;;;;;5068353;28;20404;-76
2022/01/29 07:08:04;;;;;;;29.50;19.02;;;8.70;99.90;;;;;;5067391;28;20437;-77
2022/01/29 07:10:30;;;;;;;26.98;16.90;;;8.70;99.90;;;;;;5050409;28;20487;-77
2022/01/29 07:12:55;;;;;;;27.63;18.67;;;8.70;99.90;;;;;;5050719;28;20491;-78
2022/01/29 07:15:21;;;;;;;26.08;17.85;;;8.70;99.90;;;;;;5067208;28;20422;-78
2022/01/29 07:17:47;;;;;;;26.77;18.53;;;8.70;99.90;;;;;;5067432;28;20435;-78
2022/01/29 07:20:12;;;;;;;28.07;18.40;;;8.70;99.90;;;;;;5066919;28;20790;-78
2022/01/29 07:22:39;;;;;;;27.75;19.17;;;8.70;99.90;;;;;;5067190;28;20406;-78
2022/01/29 07:25:06;;;;;;;27.02;18.90;;;8.60;99.90;;;;;;5067284;28;20782;-77
2022/01/29 07:27:32;;;;;;;30.75;19.40;;;8.60;99.90;;;;;;5050335;28;20411;-77
2022/01/29 07:29:57;;;;;;;28.90;19.40;;;8.70;99.90;;;;;;5068124;28;20406;-78
2022/01/29 07:32:23;;;;;;;27.33;19.67;;;8.70;99.90;;;;;;5066907;28;20412;-78
2022/01/29 07:34:48;;;;;;;27.90;18.77;;;8.70;99.90;;;;;;5067280;28;20830;-78
2022/01/29 07:37:14;;;;;;;29.00;19.60;;;8.70;99.90;;;;;;5067513;28;20826;-77
2022/01/29 07:39:40;;;;;;;30.50;20.17;;;8.70;99.90;;;;;;5051151;28;20404;-77
2022/01/29 07:42:06;;;;;;;30.73;20.53;;;8.70;99.90;;;;;;5050734;28;20505;-76
2022/01/29 07:44:32;;;;;;;30.80;19.23;;;8.70;99.90;;;;;;5067612;28;20814;-77
2022/01/29 07:46:57;;;;;;;28.23;20.33;;;8.70;99.90;;;;;;5067549;28;20430;-77
2022/01/29 07:49:23;;;;;;;29.67;18.38;;;8.70;99.90;;;;;;5051030;28;20404;-77
2022/01/29 07:51:48;;;;;;;27.90;19.07;;;8.70;99.90;;;;;;5088222;28;20409;-77
2022/01/29 07:54:14;;;;;;;28.70;18.67;;;8.70;99.90;;;;;;5087071;28;20441;-77
2022/01/29 07:56:40;;;;;;;29.40;18.27;;;8.70;99.90;;;;;;5087690;28;20804;-77
2022/01/29 07:59:05;;;;;;;30.67;17.60;;;8.70;99.90;;;;;;5087489;28;20919;-77
2022/01/29 08:01:31;;;;;;;24.27;17.33;;;8.80;99.90;;;;;;5071343;28;20570;-77
2022/01/29 08:03:57;;;;;;;26.00;17.47;;;8.80;99.90;;;;;;5087715;28;20395;-78
2022/01/29 08:06:23;;;;;;;26.73;17.63;;;8.80;99.90;;;;;;5087117;28;20501;-77
2022/01/29 08:08:52;;;;;;;26.10;17.52;;;8.80;99.90;;;;;;5087512;28;20402;-77
2022/01/29 08:11:18;;;;;;;26.87;16.30;;;8.80;99.90;;;;;;5087328;28;20455;-77
2022/01/29 08:13:46;;;;;;;27.08;17.35;;;8.80;99.90;;;;;;5070289;28;20445;-78
2022/01/29 08:16:12;;;;;;;29.55;17.90;;;8.70;99.90;;;;;;5088066;28;20402;-78
2022/01/29 08:18:38;;;;;;;27.88;18.15;;;8.70;99.90;;;;;;5087518;28;20444;-78
2022/01/29 08:21:04;;;;;;;26.57;16.60;;;8.70;99.90;;;;;;5087377;28;20402;-78
2022/01/29 08:23:29;;;;;;;26.02;15.93;;;8.70;99.90;;;;;;5087499;28;20538;-78
2022/01/29 08:25:55;;;;;;;23.20;16.37;;;8.70;99.90;;;;;;5087336;28;20918;-77
2022/01/29 08:28:21;;;;;;;24.17;15.20;;;8.70;99.90;;;;;;5069726;28;20399;-77
2022/01/29 08:30:47;;;;;;;25.40;15.73;;;8.70;99.90;;;;;;5087522;28;20418;-77
2022/01/29 08:33:17;;;;;;;23.02;14.80;;;8.80;99.90;;;;;;5087148;28;20405;-78
2022/01/29 08:35:43;;;;;;;23.40;14.90;;;8.80;99.90;;;;;;5070518;28;20412;-78
2022/01/29 08:38:09;;;;;;;22.33;14.45;;;8.80;99.90;;;;;;5086973;28;20430;-79
2022/01/29 08:40:35;;;;;;;22.52;12.80;;;8.90;99.90;;;;;;5086798;28;21023;-77
2022/01/29 08:43:01;;;;;;;18.63;12.57;;;8.90;99.90;;;;;;5086974;28;20816;-77
2022/01/29 08:45:26;;;;;;;18.03;12.33;;;8.90;99.90;;;;;;5086957;28;20803;-77
2022/01/29 08:47:52;;;;;;;18.83;11.35;;;9.00;99.90;;;;;;5086825;28;20405;-76
2022/01/29 08:50:17;;;;;;;17.90;11.00;;;9.00;99.90;;;;;;5078361;28;20400;-77
2022/01/29 08:52:43;;;;;;;16.17;10.38;;;9.00;99.90;;;;;;5066304;28;20408;-76
2022/01/29 08:55:10;;;;;;;17.23;11.15;;;9.10;99.90;;;;;;5066271;28;20403;-77
2022/01/29 08:57:36;;;;;;;16.77;9.52;;;9.10;99.90;;;;;;5066588;28;20522;-77
2022/01/29 09:00:05;;;;;;;15.47;8.90;;;9.10;99.90;;;;;;5066338;28;20898;-77
2022/01/29 09:02:30;;;;;;;16.60;9.80;;;9.20;99.90;;;;;;5066244;28;20766;-77
2022/01/29 09:04:58;;;;;;;14.65;9.25;;;9.20;99.90;;;;;;5050031;28;20410;-77
2022/01/29 09:07:24;;;;;;;15.38;8.50;;;9.30;99.90;;;;;;5066769;28;20413;-77
2022/01/29 09:09:51;;;;;;;14.57;8.50;;;9.30;99.90;;;;;;5066090;28;20399;-77
2022/01/29 09:12:16;;;;;;;15.93;7.80;;;9.30;99.90;;;;;;5049893;28;20498;-77
2022/01/29 09:14:43;;;;;;;12.90;7.87;;;9.40;99.90;;;;;;5066750;28;20475;-77
2022/01/29 09:17:08;;;;;;;13.65;7.78;;;9.50;99.90;;;;;;5049610;28;20400;-77
2022/01/29 09:19:34;;;;;;;16.83;7.20;;;9.50;99.90;;;;;;5066582;28;20469;-76
2022/01/29 09:22:00;;;;;;;14.57;7.05;;;9.40;99.90;;;;;;5067941;28;20455;-77
2022/01/29 09:24:25;;;;;;;11.87;6.73;;;9.50;99.90;;;;;;5067330;28;20441;-77
2022/01/29 09:26:51;;;;;;;12.13;6.70;;;9.50;99.90;;;;;;5066224;28;20408;-77
2022/01/29 09:29:16;;;;;;;14.30;6.87;;;9.50;99.90;;;;;;5066546;28;20494;-77
2022/01/29 09:31:42;;;;;;;10.83;6.37;;;9.50;99.90;;;;;;5067850;28;20453;-77
2022/01/29 09:34:08;;;;;;;15.55;6.28;;;9.60;99.90;;;;;;5049716;28;20415;-77
2022/01/29 09:36:34;;;;;;;13.50;6.47;;;9.60;99.90;;;;;;5066159;28;20469;-77
2022/01/29 09:38:59;;;;;;;13.07;6.10;;;9.60;99.90;;;;;;5066298;28;20826;-78
2022/01/29 09:41:27;;;;;;;10.05;5.25;;;9.60;99.90;;;;;;5066401;28;20439;-77
2022/01/29 09:43:54;;;;;;;11.40;5.82;;;9.70;99.90;;;;;;5066316;28;20412;-77
2022/01/29 09:46:19;;;;;;;11.45;5.10;;;9.70;99.90;;;;;;5049524;28;20412;-77
2022/01/29 09:48:45;;;;;;;11.15;5.30;;;9.70;99.90;;;;;;5049494;28;20427;-77
2022/01/29 09:51:14;;;;;;;9.63;5.20;;;9.70;99.90;;;;;;5081620;28;20425;-77
2022/01/29 09:53:43;;;;;;;12.02;5.35;;;9.80;99.90;;;;;;5086261;28;20402;-77
2022/01/29 09:56:10;;;;;;;14.02;5.70;;;9.80;99.90;;;;;;5086195;28;20398;-77
2022/01/29 09:58:36;;;;;;;11.35;5.45;;;9.80;99.90;;;;;;5086253;28;20434;-77
2022/01/29 10:01:02;;;;;;;9.30;4.60;;;9.80;99.90;;;;;;5087600;28;20394;-77
2022/01/29 10:03:28;;;;;;;9.98;4.80;;;9.80;99.90;;;;;;5087283;28;20455;-77
2022/01/29 10:05:54;;;;;;;10.30;4.72;;;9.80;99.90;;;;;;5088650;28;20410;-78
2022/01/29 10:08:21;;;;;;;8.88;4.60;;;9.90;99.90;;;;;;5072825;28;20515;-77
2022/01/29 10:10:49;;;;;;;9.88;3.80;;;9.90;99.90;;;;;;5089716;28;20428;-77
2022/01/29 10:13:27;;;;;;;9.45;4.47;;;9.90;99.90;;;;;;5089276;28;20430;-77
2022/01/29 10:16:11;;;;;;;9.18;3.90;;;10.00;99.90;;;;;;5089638;28;20444;-77
2022/01/29 10:18:39;;;;;;;9.73;4.13;;;10.00;99.90;;;;;;5089625;28;20422;-77
2022/01/29 10:21:12;;;;;;;8.32;3.90;;;10.00;99.90;;;;;;5072278;28;20437;-77
2022/01/29 10:23:39;;;;;;;11.98;4.10;;;10.00;99.90;;;;;;5089396;28;20418;-78
2022/01/29 10:26:05;;;;;;;8.10;4.00;;;10.00;99.90;;;;;;5090855;28;20485;-77
2022/01/29 10:28:32;;;;;;;6.70;3.42;;;10.00;99.90;;;;;;5089502;28;20484;-77
2022/01/29 10:31:00;;;;;;;11.85;3.83;;;10.00;99.90;;;;;;5089701;28;20424;-77
2022/01/29 10:33:34;;;;;;;8.95;3.20;;;10.00;99.90;;;;;;5072096;28;20421;-77
2022/01/29 10:36:03;;;;;;;9.63;3.53;;;10.00;99.90;;;;;;5089309;28;20496;-77
2022/01/29 10:38:46;;;;;;;9.38;3.30;;;10.00;99.90;;;;;;5089066;28;20516;-77
2022/01/29 10:41:31;;;;;;;7.80;3.13;;;10.00;99.90;;;;;;5089303;28;20425;-77
2022/01/29 10:44:19;;;;;;;9.85;3.00;;;10.00;99.90;;;;;;5089034;28;20415;-77
2022/01/29 10:46:49;;;;;;;8.60;3.03;;;10.00;99.90;;;;;;5089230;28;20540;-77
2022/01/29 10:49:22;;;;;;;9.33;2.90;;;10.00;99.90;;;;;;5089014;28;20480;-77
2022/01/29 10:52:04;;;;;;;11.25;2.63;;;10.00;99.90;;;;;;5048550;28;20413;-77
2022/01/29 10:54:33;;;;;;;9.87;2.60;;;10.00;99.90;;;;;;5049618;28;20410;-77
2022/01/29 10:57:04;;;;;;;9.18;2.67;;;10.00;99.90;;;;;;5049984;28;20405;-77
2022/01/29 10:59:45;;;;;;;8.68;2.45;;;10.10;99.90;;;;;;5048378;28;20429;-77
2022/01/29 11:02:12;;;;;;;8.77;2.53;;;10.10;99.90;;;;;;5048610;28;20471;-77
2022/01/29 11:04:40;;;;;;;11.45;2.75;;;10.10;99.90;;;;;;5048234;28;20404;-77
2022/01/29 11:07:15;;;;;;;9.47;2.50;;;10.10;99.90;;;;;;5048504;28;20409;-77
2022/01/29 11:09:43;;;;;;;9.88;2.50;;;10.10;99.90;;;;;;5047753;28;20445;-77
2022/01/29 11:12:10;;;;;;;9.17;2.53;;;10.20;99.90;;;;;;5048016;28;21043;-77
2022/01/29 11:14:36;;;;;;;10.93;2.70;;;10.20;99.90;;;;;;5048808;28;20415;-77
2022/01/29 11:17:03;;;;;;;10.80;2.47;;;10.20;99.90;;;;;;5047368;28;20410;-77
2022/01/29 11:19:29;;;;;;;7.13;2.35;;;10.20;99.90;;;;;;5049475;28;20429;-77
2022/01/29 11:21:59;;;;;;;8.70;2.07;;;10.20;99.90;;;;;;5048047;28;20409;-76
2022/01/29 11:24:27;;;;;;;8.82;2.20;;;10.20;99.90;;;;;;5048475;28;20500;-77
2022/01/29 11:26:53;;;;;;;7.57;2.20;;;10.30;99.90;;;;;;5031638;28;20417;-77
2022/01/29 11:29:21;;;;;;;5.60;1.67;;;10.20;99.90;;;;;;5047560;28;20755;-77
2022/01/29 11:31:47;;;;;;;9.60;2.40;;;10.30;99.90;;;;;;5047953;28;20417;-77
2022/01/29 11:34:12;;;;;;;10.17;2.30;;;10.30;99.90;;;;;;5048224;28;20406;-77
2022/01/29 11:36:47;;;;;;;9.48;2.15;;;10.20;99.90;;;;;;5031290;28;20411;-77
2022/01/29 11:39:28;;;;;;;9.48;2.17;;;10.20;99.90;;;;;;5030817;28;20808;-77
2022/01/29 11:42:13;;;;;;;7.93;1.85;;;10.30;99.90;;;;;;5047767;28;20421;-77
2022/01/29 11:44:39;;;;;;;9.13;2.20;;;10.30;99.90;;;;;;5047863;28;20421;-77
2022/01/29 11:47:26;;;;;;;8.07;1.70;;;10.30;99.90;;;;;;5047810;28;20466;-77
2022/01/29 11:50:13;;;;;;;10.40;2.50;;;10.30;99.90;;;;;;5056203;28;20418;-77
2022/01/29 11:53:03;;;;;;;7.70;1.70;;;10.30;99.90;;;;;;5087990;28;20764;-77
2022/01/29 11:55:40;;;;;;;8.13;1.80;;;10.40;99.90;;;;;;5070837;28;21297;-77
2022/01/29 11:58:17;;;;;;;7.65;1.95;;;10.40;99.90;;;;;;5087348;28;20430;-77
2022/01/29 12:00:48;;;;;;;7.83;2.10;;;10.40;99.90;;;;;;5087449;28;20410;-77
2022/01/29 12:03:38;;;;;;;8.17;1.97;;;10.40;99.90;;;;;;5070675;28;20787;-77
2022/01/29 12:09:07;;;;;;;9.35;1.80;;;10.50;99.90;;;;;;5087535;28;20406;-77
2022/01/29 12:11:34;;;;;;;8.18;1.77;;;10.50;99.90;;;;;;5087780;28;20410;-77
2022/01/29 12:14:12;;;;;;;10.52;2.35;;;10.50;99.90;;;;;;5070745;28;20737;-77
2022/01/29 12:16:57;;;;;;;9.15;2.03;;;10.60;99.90;;;;;;5087373;28;20441;-77
2022/01/29 12:19:42;;;;;;;9.90;1.60;;;10.70;99.90;;;;;;5087519;28;20434;-77
2022/01/29 12:22:23;;;;;;;7.75;1.90;;;10.70;99.90;;;;;;5087001;28;20417;-77
2022/01/29 12:24:59;;;;;;;9.25;1.60;;;10.80;99.90;;;;;;5086926;28;20510;-77
2022/01/29 12:27:42;;;;;;;10.02;1.77;;;10.80;99.90;;;;;;5085482;28;20417;-77
2022/01/29 12:30:08;;;;;;;10.52;1.80;;;10.80;99.90;;;;;;5086705;28;20912;-77
2022/01/29 12:32:34;;;;;;;7.30;1.48;;;10.80;99.90;;;;;;5086448;28;20455;-77
2022/01/29 12:34:59;;;;;;;9.68;1.95;;;10.80;99.90;;;;;;5085909;28;20402;-77
2022/01/29 12:37:25;;;;;;;7.67;1.80;;;10.90;99.90;;;;;;5085983;28;20405;-77
2022/01/29 12:40:17;;;;;;;8.93;1.67;;;10.90;99.90;;;;;;5086368;28;20411;-77
2022/01/29 12:42:46;;;;;;;8.02;1.77;;;10.90;99.90;;;;;;5069254;28;20418;-77
2022/01/29 12:45:12;;;;;;;9.27;1.95;;;10.90;99.90;;;;;;5085701;28;20406;-77
2022/01/29 12:47:38;;;;;;;8.10;1.97;;;10.90;99.90;;;;;;5085830;28;20402;-77
2022/01/29 12:50:05;;;;;;;8.80;2.07;;;10.90;99.90;;;;;;5080314;28;20921;-77
2022/01/29 12:52:31;;;;;;;7.90;2.00;;;11.00;99.90;;;;;;5065851;28;20905;-77
2022/01/29 12:55:03;;;;;;;7.82;1.73;;;11.00;99.90;;;;;;5065023;28;20921;-77
2022/01/29 12:57:48;;;;;;;9.75;1.85;;;11.00;99.90;;;;;;5065676;28;20412;-77
2022/01/29 13:00:17;;;;;;;9.43;1.88;;;11.00;99.90;;;;;;5065691;28;20418;-77
2022/01/29 13:02:43;;;;;;;10.35;1.92;;;11.00;99.90;;;;;;5066113;28;20403;-77
2022/01/29 13:05:10;;;;;;;11.23;2.00;;;11.00;99.90;;;;;;5048869;28;20757;-77
2022/01/29 13:07:37;;;;;;;9.63;1.97;;;11.00;99.90;;;;;;5065664;28;20408;-77
2022/01/29 13:10:08;;;;;;;11.45;2.10;;;10.90;99.90;;;;;;5065654;28;20415;-77
2022/01/29 13:12:45;;;;;;;10.45;2.20;;;10.90;99.90;;;;;;5066002;28;20434;-77
2022/01/29 13:15:12;;;;;;;8.45;2.17;;;10.90;99.90;;;;;;5048270;28;20423;-77
2022/01/29 13:17:43;;;;;;;14.25;2.67;;;11.00;99.90;;;;;;5048940;28;20431;-77
2022/01/29 13:20:11;;;;;;;10.97;2.27;;;10.90;99.90;;;;;;5048916;28;20423;-77
2022/01/29 13:22:42;;;;;;;13.82;2.38;;;11.00;99.90;;;;;;5048888;28;20415;-77